This is the latest recevied weather packets stored in our database for station/object WX4ET. If no packets are shown the sender has not sent any weather packets the latest 1 day(s).
| Time | Temp. | Humidity | Pressure | Rain* | Wind** | Luminosity | Snow |
|---|---|---|---|---|---|---|---|
| 1778095821 | 21.11° C | 87% | 1007 hPa | 0 mm | - | 224 W/m² | - |
| 1778093698 | 20.56° C | 90% | 1007.1 hPa | 0 mm | - | 95 W/m² | - |
| 1778092484 | 20.56° C | 89% | 1006.7 hPa | 0 mm | - | 184 W/m² | - |
| 1778091274 | 20.56° C | 90% | 1006.9 hPa | 0 mm | - | 280 W/m² | - |
| 1778088242 | 20° C | 92% | 1007.1 hPa | 0 mm | - | 191 W/m² | - |
| 1778086123 | 18.89° C | 96% | 1007.1 hPa | 0 mm | - | 105 W/m² | - |
| 1778085820 | 18.89° C | 96% | 1007.3 hPa | 0 mm | - | 91 W/m² | - |
| 1778085212 | 18.89° C | 98% | 1007.1 hPa | 0 mm | - | 132 W/m² | - |
| 1778084908 | 18.89° C | 99% | 1007.3 hPa | 0 mm | - | 118 W/m² | - |
| 1778084606 | 18.89° C | 99% | 1007.1 hPa | 0 mm | - | 120 W/m² | - |
| 1778084303 | 18.33° C | 99% | 1007.6 hPa | 0 mm | - | 129 W/m² | - |
| 1778084000 | 18.33° C | 99% | 1007.9 hPa | 0 mm | - | 88 W/m² | - |
| 1778083698 | 18.33° C | 99% | 1008 hPa | 1.27 mm | - | 103 W/m² | - |
| 1778083394 | 17.78° C | 99% | 1008 hPa | 1.27 mm | - | 150 W/m² | - |
| 1778083093 | 17.78° C | 99% | 1008.2 hPa | 0 mm | - | 158 W/m² | - |
| 1778082789 | 17.78° C | 99% | 1008.4 hPa | 0 mm | - | 149 W/m² | - |
| 1778080755 | 16.67° C | 99% | 1008.5 hPa | 0 mm | - | 109 W/m² | - |
| 1778080149 | 16.67° C | 99% | 1008.3 hPa | 0 mm | - | 50 W/m² | - |
| 1778078632 | 16.11° C | 99% | 1007.4 hPa | 0 mm | - | 45 W/m² | - |
| 1778078027 | 16.11° C | 99% | 1006.8 hPa | 0 mm | - | 95 W/m² | - |
| 1778077423 | 16.11° C | 99% | 1007 hPa | 0 mm | - | 58 W/m² | - |
| 1778077121 | 16.11° C | 99% | 1006.7 hPa | 0 mm | - | 114 W/m² | - |
| 1778076819 | 16.11° C | 99% | 1007.1 hPa | 0 mm | - | 78 W/m² | - |
| 1778075910 | 16.11° C | 99% | 1007.2 hPa | 0 mm | - | 45 W/m² | - |
| 1778075607 | 15.56° C | 99% | 1007.2 hPa | 0 mm | - | 41 W/m² | - |
* Rain latest hour (hover to see other rain measurements)
** Current wind speed in m/s (hover to see current wind gust speed)